Time,TemperatureF,DewpointF,PressureIn,WindDirection,WindDirectionDegrees,WindSpeedMPH,WindSpeedGustMPH,Humidity,HourlyPrecipIn,Conditions,Clouds,dailyrainin,SoftwareType,DateUTC
2013-03-05 00:01:00,26.0,15.0,-100.00,South,174,6.0,8.0,61,0.00,,,-99.99,,2013-03-05 07:01:00,
2013-03-05 00:11:00,26.0,15.0,-100.00,South,172,9.0,12.0,62,0.00,,,-99.99,,2013-03-05 07:11:00,
2013-03-05 00:21:00,25.0,15.0,-100.00,South,178,9.0,12.0,63,0.00,,,-99.99,,2013-03-05 07:21:00,
2013-03-05 00:31:00,25.0,15.0,-100.00,South,178,9.0,12.0,63,0.00,,,-99.99,,2013-03-05 07:31:00,
2013-03-05 00:41:00,25.0,15.0,-100.00,South,178,9.0,12.0,63,0.00,,,-99.99,,2013-03-05 07:41:00,
2013-03-05 00:52:00,24.0,14.0,-100.00,SSE,165,10.0,12.0,66,0.00,,,-99.99,,2013-03-05 07:52:00,
2013-03-05 01:01:00,24.0,14.0,-100.00,SSE,165,10.0,12.0,66,0.00,,,-99.99,,2013-03-05 08:01:00,
2013-03-05 01:11:00,24.0,14.0,-100.00,South,178,9.0,12.0,65,0.00,,,-99.99,,2013-03-05 08:11:00,
2013-03-05 01:21:00,24.0,14.0,-100.00,South,178,8.0,10.0,67,0.00,,,-99.99,,2013-03-05 08:21:00,
2013-03-05 01:31:00,24.0,14.0,-100.00,South,178,8.0,10.0,67,0.00,,,-99.99,,2013-03-05 08:31:00,
2013-03-05 01:41:00,24.0,14.0,-100.00,SSE,167,8.0,11.0,65,0.00,,,-99.99,,2013-03-05 08:41:00,
2013-03-05 01:52:00,24.0,14.0,-100.00,SSE,167,8.0,11.0,65,0.00,,,-99.99,,2013-03-05 08:52:00,
2013-03-05 02:01:00,24.0,14.0,-100.00,SSE,167,8.0,11.0,65,0.00,,,-99.99,,2013-03-05 09:01:00,
2013-03-05 02:11:00,26.0,14.0,-100.00,South,174,9.0,12.0,60,0.00,,,-99.99,,2013-03-05 09:11:00,
2013-03-05 02:21:00,25.0,14.0,-100.00,South,174,11.0,14.0,62,0.00,,,-99.99,,2013-03-05 09:21:00,
2013-03-05 02:31:00,25.0,14.0,-100.00,South,174,11.0,14.0,62,0.00,,,-99.99,,2013-03-05 09:31:00,
2013-03-05 02:42:00,24.0,14.0,-100.00,South,178,10.0,14.0,63,0.00,,,-99.99,,2013-03-05 09:42:00,
2013-03-05 02:52:00,25.0,13.0,-100.00,South,184,8.0,10.0,61,0.00,,,-99.99,,2013-03-05 09:52:00,
2013-03-05 03:01:00,25.0,13.0,-100.00,South,184,8.0,10.0,61,0.00,,,-99.99,,2013-03-05 10:01:00,
2013-03-05 03:11:00,24.0,13.0,-100.00,SSW,198,9.0,12.0,63,0.00,,,-99.99,,2013-03-05 10:11:00,
2013-03-05 03:21:00,24.0,13.0,-100.00,SSW,193,11.0,14.0,63,0.00,,,-99.99,,2013-03-05 10:21:00,
2013-03-05 03:32:00,24.0,13.0,-100.00,SSW,193,11.0,14.0,63,0.00,,,-99.99,,2013-03-05 10:32:00,
2013-03-05 03:41:00,24.0,13.0,-100.00,South,189,7.0,9.0,63,0.00,,,-99.99,,2013-03-05 10:41:00,
2013-03-05 03:52:00,24.0,13.0,-100.00,South,185,7.0,9.0,62,0.00,,,-99.99,,2013-03-05 10:52:00,
2013-03-05 04:01:00,24.0,13.0,-100.00,South,185,7.0,9.0,62,0.00,,,-99.99,,2013-03-05 11:01:00,
2013-03-05 04:11:00,24.0,13.0,-100.00,South,185,8.0,12.0,62,0.00,,,-99.99,,2013-03-05 11:11:00,
2013-03-05 04:21:00,24.0,13.0,-100.00,South,185,8.0,12.0,62,0.00,,,-99.99,,2013-03-05 11:21:00,
2013-03-05 04:32:00,24.0,13.0,-100.00,South,185,8.0,12.0,62,0.00,,,-99.99,,2013-03-05 11:32:00,
2013-03-05 04:41:00,24.0,13.0,-100.00,South,184,7.0,9.0,62,0.00,,,-99.99,,2013-03-05 11:41:00,
2013-03-05 04:52:00,24.0,13.0,-100.00,South,184,7.0,9.0,62,0.00,,,-99.99,,2013-03-05 11:52:00,
2013-03-05 05:02:00,24.0,13.0,-100.00,South,184,7.0,9.0,62,0.00,,,-99.99,,2013-03-05 12:02:00,
2013-03-05 05:11:00,27.0,11.0,-100.00,SSE,162,9.0,12.0,50,0.00,,,-99.99,,2013-03-05 12:11:00,
2013-03-05 05:22:00,27.0,11.0,-100.00,SSE,162,9.0,12.0,50,0.00,,,-99.99,,2013-03-05 12:22:00,
2013-03-05 05:32:00,27.0,11.0,-100.00,SSE,162,9.0,12.0,50,0.00,,,-99.99,,2013-03-05 12:32:00,
2013-03-05 05:42:00,25.0,12.0,-100.00,South,188,7.0,9.0,58,0.00,,,-99.99,,2013-03-05 12:42:00,
2013-03-05 05:52:00,22.0,13.0,-100.00,South,174,8.0,9.0,67,0.00,,,-99.99,,2013-03-05 12:52:00,
2013-03-05 06:02:00,22.0,13.0,-100.00,South,174,8.0,9.0,67,0.00,,,-99.99,,2013-03-05 13:02:00,
2013-03-05 06:11:00,24.0,12.0,-100.00,SSE,162,10.0,12.0,60,0.00,,,-99.99,,2013-03-05 13:11:00,
2013-03-05 06:21:00,26.0,11.0,-100.00,SSE,154,10.0,11.0,54,0.00,,,-99.99,,2013-03-05 13:21:00,
2013-03-05 06:31:00,26.0,11.0,-100.00,SSE,154,10.0,11.0,54,0.00,,,-99.99,,2013-03-05 13:31:00,
2013-03-05 06:42:00,27.0,11.0,-100.00,SSE,164,7.0,9.0,51,0.00,,,-99.99,,2013-03-05 13:42:00,
2013-03-05 06:52:00,27.0,11.0,-100.00,SSE,164,7.0,9.0,51,0.00,,,-99.99,,2013-03-05 13:52:00,
2013-03-05 07:02:00,27.0,11.0,-100.00,SSE,164,7.0,9.0,51,0.00,,,-99.99,,2013-03-05 14:02:00,
2013-03-05 07:11:00,25.0,12.0,-100.00,South,176,7.0,11.0,56,0.00,,,-99.99,,2013-03-05 14:11:00,
2013-03-05 07:21:00,25.0,12.0,-100.00,South,179,5.0,7.0,57,0.00,,,-99.99,,2013-03-05 14:21:00,
2013-03-05 07:31:00,25.0,12.0,-100.00,South,179,5.0,7.0,57,0.00,,,-99.99,,2013-03-05 14:31:00,
2013-03-05 07:41:00,26.0,12.0,-100.00,SSE,168,8.0,10.0,55,0.00,,,-99.99,,2013-03-05 14:41:00,
2013-03-05 07:52:00,26.0,12.0,-100.00,SSE,168,8.0,10.0,55,0.00,,,-99.99,,2013-03-05 14:52:00,
2013-03-05 08:01:00,26.0,12.0,-100.00,SSE,168,8.0,10.0,55,0.00,,,-99.99,,2013-03-05 15:01:00,
2013-03-05 08:21:00,27.0,13.0,-100.00,South,174,6.0,9.0,54,0.00,,,-99.99,,2013-03-05 15:21:00,
2013-03-05 08:32:00,27.0,13.0,-100.00,South,174,6.0,9.0,54,0.00,,,-99.99,,2013-03-05 15:32:00,
2013-03-05 08:42:00,28.0,13.0,-100.00,South,189,6.0,8.0,53,0.00,,,-99.99,,2013-03-05 15:42:00,
2013-03-05 08:52:00,28.0,13.0,-100.00,South,189,6.0,8.0,53,0.00,,,-99.99,,2013-03-05 15:52:00,
2013-03-05 09:01:00,28.0,13.0,-100.00,South,189,6.0,8.0,53,0.00,,,-99.99,,2013-03-05 16:01:00,
2013-03-05 09:11:00,31.0,15.0,-100.00,SSW,193,4.0,7.0,50,0.00,,,-99.99,,2013-03-05 16:11:00,
2013-03-05 09:21:00,31.0,15.0,-100.00,SSW,193,4.0,7.0,50,0.00,,,-99.99,,2013-03-05 16:21:00,
2013-03-05 09:32:00,31.0,15.0,-100.00,SSW,193,4.0,7.0,50,0.00,,,-99.99,,2013-03-05 16:32:00,
2013-03-05 09:41:00,33.0,15.0,-100.00,SSW,192,6.0,8.0,47,0.00,,,-99.99,,2013-03-05 16:41:00,
2013-03-05 09:52:00,35.0,16.0,-100.00,WSW,246,2.0,4.0,45,0.00,,,-99.99,,2013-03-05 16:52:00,
2013-03-05 10:01:00,35.0,16.0,-100.00,WSW,246,2.0,4.0,45,0.00,,,-99.99,,2013-03-05 17:01:00,
2013-03-05 10:21:00,38.0,15.0,-100.00,South,184,4.0,6.0,39,0.00,,,-99.99,,2013-03-05 17:21:00,
2013-03-05 10:32:00,38.0,15.0,-100.00,South,184,4.0,6.0,39,0.00,,,-99.99,,2013-03-05 17:32:00,
2013-03-05 10:42:00,38.0,16.0,-100.00,NNW,328,2.0,3.0,40,0.00,,,-99.99,,2013-03-05 17:42:00,
2013-03-05 10:52:00,38.0,15.0,-100.00,West,270,2.0,3.0,39,0.00,,,-99.99,,2013-03-05 17:52:00,
2013-03-05 11:01:00,38.0,15.0,-100.00,West,270,2.0,3.0,39,0.00,,,-99.99,,2013-03-05 18:01:00,
2013-03-05 11:11:00,41.0,17.0,-100.00,SW,223,4.0,6.0,37,0.00,,,-99.99,,2013-03-05 18:11:00,
2013-03-05 11:21:00,41.0,17.0,-100.00,SW,223,4.0,6.0,37,0.00,,,-99.99,,2013-03-05 18:21:00,
2013-03-05 11:41:00,40.0,15.0,-100.00,South,191,12.0,14.0,36,0.00,,,-99.99,,2013-03-05 18:41:00,
2013-03-05 11:53:00,41.0,17.0,-100.00,SW,215,7.0,10.0,36,0.00,,,-99.99,,2013-03-05 18:53:00,
2013-03-05 12:01:00,41.0,17.0,-100.00,SW,215,7.0,10.0,36,0.00,,,-99.99,,2013-03-05 19:01:00,
2013-03-05 12:11:00,41.0,16.0,-100.00,SW,216,8.0,18.0,35,0.00,,,-99.99,,2013-03-05 19:11:00,
2013-03-05 12:21:00,42.0,17.0,-100.00,South,186,16.0,21.0,35,0.00,,,-99.99,,2013-03-05 19:21:00,
2013-03-05 12:31:00,42.0,17.0,-100.00,South,186,16.0,21.0,35,0.00,,,-99.99,,2013-03-05 19:31:00,
2013-03-05 12:41:00,42.0,17.0,-100.00,SSW,199,14.0,18.0,35,0.00,,,-99.99,,2013-03-05 19:41:00,
2013-03-05 12:52:00,44.0,17.0,-100.00,SSW,193,11.0,14.0,34,0.00,,,-99.99,,2013-03-05 19:52:00,
2013-03-05 13:01:00,44.0,17.0,-100.00,SSW,193,11.0,14.0,34,0.00,,,-99.99,,2013-03-05 20:01:00,
2013-03-05 13:11:00,45.0,18.0,-100.00,SSW,192,6.0,12.0,34,0.00,,,-99.99,,2013-03-05 20:11:00,
2013-03-05 13:21:00,44.0,18.0,-100.00,SSW,203,9.0,13.0,34,0.00,,,-99.99,,2013-03-05 20:21:00,
2013-03-05 13:32:00,44.0,18.0,-100.00,SSW,203,9.0,13.0,34,0.00,,,-99.99,,2013-03-05 20:32:00,
2013-03-05 13:41:00,44.0,18.0,-100.00,SSW,203,9.0,13.0,34,0.00,,,-99.99,,2013-03-05 20:41:00,
2013-03-05 13:52:00,44.0,18.0,-100.00,SSE,168,12.0,16.0,35,0.00,,,-99.99,,2013-03-05 20:52:00,
2013-03-05 14:01:00,44.0,18.0,-100.00,SSE,168,12.0,16.0,35,0.00,,,-99.99,,2013-03-05 21:01:00,
2013-03-05 14:11:00,46.0,19.0,-100.00,South,172,11.0,18.0,34,0.00,,,-99.99,,2013-03-05 21:11:00,
2013-03-05 14:21:00,46.0,18.0,-100.00,South,185,9.0,12.0,33,0.00,,,-99.99,,2013-03-05 21:21:00,
2013-03-05 14:31:00,46.0,18.0,-100.00,South,185,9.0,12.0,33,0.00,,,-99.99,,2013-03-05 21:31:00,
2013-03-05 14:41:00,46.0,18.0,-100.00,South,185,9.0,12.0,33,0.00,,,-99.99,,2013-03-05 21:41:00,
2013-03-05 14:52:00,46.0,20.0,-100.00,South,178,11.0,14.0,34,0.00,,,-99.99,,2013-03-05 21:52:00,
2013-03-05 15:01:00,46.0,20.0,-100.00,South,178,11.0,14.0,34,0.00,,,-99.99,,2013-03-05 22:01:00,
2013-03-05 15:11:00,47.0,20.0,-100.00,South,191,10.0,13.0,33,0.00,,,-99.99,,2013-03-05 22:11:00,
2013-03-05 15:21:00,47.0,20.0,-100.00,South,179,11.0,16.0,34,0.00,,,-99.99,,2013-03-05 22:21:00,
2013-03-05 15:32:00,47.0,20.0,-100.00,South,179,11.0,16.0,34,0.00,,,-99.99,,2013-03-05 22:32:00,
2013-03-05 15:41:00,46.0,20.0,-100.00,SSW,198,16.0,19.0,34,0.00,,,-99.99,,2013-03-05 22:41:00,
2013-03-05 15:52:00,47.0,20.0,-100.00,South,176,11.0,15.0,34,0.00,,,-99.99,,2013-03-05 22:52:00,
2013-03-05 16:01:00,47.0,20.0,-100.00,South,176,11.0,15.0,34,0.00,,,-99.99,,2013-03-05 23:01:00,
2013-03-05 16:11:00,47.0,19.0,-100.00,South,188,13.0,17.0,33,0.00,,,-99.99,,2013-03-05 23:11:00,
2013-03-05 16:21:00,47.0,19.0,-100.00,South,188,13.0,17.0,33,0.00,,,-99.99,,2013-03-05 23:21:00,
2013-03-05 16:32:00,47.0,19.0,-100.00,South,188,13.0,17.0,33,0.00,,,-99.99,,2013-03-05 23:32:00,
2013-03-05 16:41:00,46.0,20.0,-100.00,SSW,195,16.0,21.0,34,0.00,,,-99.99,,2013-03-05 23:41:00,
2013-03-05 16:52:00,46.0,20.0,-100.00,SSW,192,8.0,14.0,35,0.00,,,-99.99,,2013-03-05 23:52:00,
2013-03-05 17:01:00,46.0,20.0,-100.00,SSW,192,8.0,14.0,35,0.00,,,-99.99,,2013-03-06 00:01:00,
2013-03-05 17:11:00,46.0,20.0,-100.00,SSW,192,8.0,14.0,35,0.00,,,-99.99,,2013-03-06 00:11:00,
2013-03-05 17:21:00,46.0,19.0,-100.00,South,179,11.0,14.0,33,0.00,,,-99.99,,2013-03-06 00:21:00,
2013-03-05 17:32:00,46.0,19.0,-100.00,South,179,11.0,14.0,33,0.00,,,-99.99,,2013-03-06 00:32:00,
2013-03-05 17:41:00,46.0,19.0,-100.00,South,184,15.0,21.0,34,0.00,,,-99.99,,2013-03-06 00:41:00,
2013-03-05 17:52:00,46.0,19.0,-100.00,South,184,15.0,21.0,34,0.00,,,-99.99,,2013-03-06 00:52:00,
2013-03-05 18:01:00,46.0,19.0,-100.00,South,184,15.0,21.0,34,0.00,,,-99.99,,2013-03-06 01:01:00,
2013-03-05 18:11:00,45.0,19.0,-100.00,SSW,200,12.0,16.0,34,0.00,,,-99.99,,2013-03-06 01:11:00,
2013-03-05 18:21:00,44.0,18.0,-100.00,SW,215,3.0,8.0,35,0.00,,,-99.99,,2013-03-06 01:21:00,
2013-03-05 18:31:00,44.0,18.0,-100.00,SW,215,3.0,8.0,35,0.00,,,-99.99,,2013-03-06 01:31:00,
2013-03-05 18:42:00,40.0,27.0,-100.00,NW,325,2.0,3.0,59,0.00,,,-99.99,,2013-03-06 01:42:00,
2013-03-05 18:52:00,40.0,27.0,-100.00,NW,325,2.0,3.0,59,0.00,,,-99.99,,2013-03-06 01:52:00,
2013-03-05 19:01:00,40.0,27.0,-100.00,NW,325,2.0,3.0,59,0.00,,,-99.99,,2013-03-06 02:01:00,
2013-03-05 19:11:00,40.0,25.0,-100.00,NE,35,3.0,5.0,55,0.00,,,-99.99,,2013-03-06 02:11:00,
2013-03-05 19:21:00,39.0,23.0,-100.00,NNE,13,1.0,2.0,53,0.00,,,-99.99,,2013-03-06 02:21:00,
2013-03-05 19:31:00,39.0,23.0,-100.00,NNE,13,1.0,2.0,53,0.00,,,-99.99,,2013-03-06 02:31:00,
2013-03-05 19:41:00,37.0,26.0,-100.00,NE,47,4.0,4.0,64,0.00,,,-99.99,,2013-03-06 02:41:00,
2013-03-05 19:52:00,35.0,27.0,-100.00,NE,40,4.0,5.0,73,0.00,,,-99.99,,2013-03-06 02:52:00,
2013-03-05 20:01:00,35.0,27.0,-100.00,NE,40,4.0,5.0,73,0.00,,,-99.99,,2013-03-06 03:01:00,
2013-03-05 20:11:00,33.0,26.0,-100.00,NW,315,1.0,2.0,74,0.00,,,-99.99,,2013-03-06 03:11:00,
2013-03-05 20:21:00,33.0,26.0,-100.00,NW,315,1.0,2.0,74,0.00,,,-99.99,,2013-03-06 03:21:00,
2013-03-05 20:31:00,33.0,26.0,-100.00,NW,315,1.0,2.0,74,0.00,,,-99.99,,2013-03-06 03:31:00,
2013-03-05 20:41:00,32.0,26.0,-100.00,SW,227,2.0,3.0,77,0.00,,,-99.99,,2013-03-06 03:41:00,
2013-03-05 20:52:00,32.0,26.0,-100.00,ESE,107,2.0,2.0,78,0.00,,,-99.99,,2013-03-06 03:52:00,
2013-03-05 21:01:00,32.0,26.0,-100.00,ESE,107,2.0,2.0,78,0.00,,,-99.99,,2013-03-06 04:01:00,
2013-03-05 21:11:00,31.0,25.0,-100.00,SE,124,2.0,3.0,77,0.00,,,-99.99,,2013-03-06 04:11:00,
2013-03-05 21:21:00,31.0,25.0,-100.00,SE,124,2.0,3.0,77,0.00,,,-99.99,,2013-03-06 04:21:00,
2013-03-05 21:31:00,31.0,25.0,-100.00,SE,124,2.0,3.0,77,0.00,,,-99.99,,2013-03-06 04:31:00,
2013-03-05 21:41:00,30.0,25.0,-100.00,SE,141,3.0,4.0,79,0.00,,,-99.99,,2013-03-06 04:41:00,
2013-03-05 21:52:00,32.0,26.0,-100.00,South,179,4.0,7.0,77,0.00,,,-99.99,,2013-03-06 04:52:00,
2013-03-05 22:01:00,32.0,26.0,-100.00,South,179,4.0,7.0,77,0.00,,,-99.99,,2013-03-06 05:01:00,
2013-03-05 22:11:00,33.0,24.0,-100.00,SSE,164,5.0,6.0,71,0.00,,,-99.99,,2013-03-06 05:11:00,
2013-03-05 22:22:00,33.0,23.0,-100.00,SSW,198,2.0,4.0,65,0.00,,,-99.99,,2013-03-06 05:22:00,
2013-03-05 22:32:00,33.0,23.0,-100.00,SSW,198,2.0,4.0,65,0.00,,,-99.99,,2013-03-06 05:32:00,
2013-03-05 22:42:00,34.0,22.0,-100.00,SSW,212,1.0,3.0,62,0.00,,,-99.99,,2013-03-06 05:42:00,
2013-03-05 22:52:00,34.0,22.0,-100.00,SSW,212,1.0,3.0,62,0.00,,,-99.99,,2013-03-06 05:52:00,
2013-03-05 23:01:00,34.0,22.0,-100.00,SSW,212,1.0,3.0,62,0.00,,,-99.99,,2013-03-06 06:01:00,
2013-03-05 23:11:00,32.0,23.0,-100.00,NE,51,3.0,5.0,68,0.00,,,-99.99,,2013-03-06 06:11:00,
2013-03-05 23:22:00,33.0,23.0,-100.00,ENE,58,2.0,3.0,67,0.00,,,-99.99,,2013-03-06 06:22:00,
2013-03-05 23:31:00,33.0,23.0,-100.00,ENE,58,2.0,3.0,67,0.00,,,-99.99,,2013-03-06 06:31:00,
2013-03-05 23:41:00,33.0,23.0,-100.00,ENE,58,2.0,3.0,67,0.00,,,-99.99,,2013-03-06 06:41:00,
2013-03-05 23:52:00,33.0,21.0,-100.00,South,178,3.0,5.0,60,0.00,,,-99.99,,2013-03-06 06:52:00,